Mont Saint Michel — FNMT — position and weather

sailwx.info

Track history (hours):
 
Tides and Currents Weather Stations Pressure Air Temp Water Temp Dewpoint Dewpoint Depression Visibility Wind Speed Wind Dir Waves Ship Positions

Mont Saint Michel

Last reported at 2016-Jul-01 04:34 UTC. Time now 2016-Jul-01 06:19 UTC.
Position N 50°37' W 000°57'.

Length 173 m; beam 29 m.

Type: Ship. MMSI: 227023100.

Date/timePositionNaut miles runAvg speedWind from/ knotsBaromVisibWave heightAir tempDewpointWater temp
2016-Jul-01 04:34N 50°37' W 000°57'1615.6
2016-Jul-01 03:32N 50°22' W 000°48'1211.8
2016-Jul-01 02:33N 50°11' W 000°42'1212.1
2016-Jul-01 01:33N 49°59' W 000°36'1312.7
2016-Jul-01 00:33N 49°47' W 000°30'8 8.3
2016-Jun-30 23:33N 49°40' W 000°24'7 7.2
2016-Jun-30 22:33N 49°33' W 000°19'1312.9
2016-Jun-30 21:34N 49°21' W 000°14'3 3.3
2016-Jun-30 20:33N 49°17' W 000°15'0 0.0
2016-Jun-30 19:33N 49°17' W 000°15'1110.9
2016-Jun-30 18:34N 49°28' W 000°18'2020.2
2016-Jun-30 17:33N 49°47' W 000°28'2020.3
2016-Jun-30 16:34N 50°06' W 000°38'2020.2
2016-Jun-30 15:33N 50°25' W 000°49'1919.5
2016-Jun-30 14:34N 50°43' W 001°01'6 6.2
2016-Jun-30 13:33N 50°49' W 001°06'0 0.0
2016-Jun-30 12:33N 50°49' W 001°06'6 6.4
2016-Jun-30 11:33N 50°43' W 001°00'1817.7
2016-Jun-30 10:34N 50°26' W 000°54'1919.1
2016-Jun-30 09:33N 50°09' W 000°40'2020.4
2016-Jun-30 08:33N 49°50' W 000°31'2120.7
2016-Jun-30 07:33N 49°30' W 000°20'1313.2
2016-Jun-30 06:33N 49°17' W 000°15'0 0.0
2016-Jun-30 05:33N 49°17' W 000°15'0 0.0
2016-Jun-30 04:33N 49°17' W 000°15'1413.5
2016-Jun-30 03:33N 49°31' W 000°19'1514.6
2016-Jun-30 02:33N 49°44' W 000°27'1211.6
2016-Jun-30 01:33N 49°55' W 000°34'1212.4
2016-Jun-30 00:33N 50°07' W 000°40'1514.3
2016-Jun-29 23:30N 50°21' W 000°49'1414.4
2016-Jun-29 22:33N 50°34' W 000°56'1514.6
2016-Jun-29 21:33N 50°47' W 001°06'2 2.0
2016-Jun-29 20:33N 50°49' W 001°06'0 0.0
2016-Jun-29 19:33N 50°49' W 001°06'0 0.0
2016-Jun-29 18:33N 50°49' W 001°06'5 5.3
2016-Jun-29 17:33N 50°44' W 001°03'1717.4
2016-Jun-29 16:33N 50°28' W 000°51'1818.5
2016-Jun-29 15:34N 50°11' W 000°41'1616.0
2016-Jun-29 14:34N 49°56' W 000°33'1717.3
2016-Jun-29 13:34N 49°39' W 000°24'1918.5
2016-Jun-29 12:34N 49°22' W 000°15'4 4.3
2016-Jun-29 11:34N 49°17' W 000°15'0 0.0
2016-Jun-29 10:34N 49°17' W 000°15'0 0.0
2016-Jun-29 09:33N 49°17' W 000°15'0 0.0
2016-Jun-29 08:34N 49°17' W 000°15'0 0.0
2016-Jun-29 07:34N 49°17' W 000°15'0 0.0
2016-Jun-29 06:34N 49°17' W 000°15'0 0.0
2016-Jun-29 05:34N 49°17' W 000°15'1110.7
2016-Jun-29 04:33N 49°28' W 000°17'1514.7
2016-Jun-29 03:33N 49°42' W 000°24'1211.8
2016-Jun-29 02:33N 49°53' W 000°30'1212.2
2016-Jun-29 01:33N 50°05' W 000°37'1514.4
2016-Jun-29 00:29N 50°19' W 000°46'1415.3
2016-Jun-28 23:33N 50°32' W 000°54'1414.3
2016-Jun-28 22:34N 50°45' W 001°05'4 4.2
2016-Jun-28 21:34N 50°49' W 001°06'0 0.0
2016-Jun-28 20:34N 50°49' W 001°06'3 3.5
2016-Jun-28 19:34N 50°45' W 001°05'2019.5
2016-Jun-28 18:33N 50°28' W 000°52'2120.6
2016-Jun-28 17:33N 50°08' W 000°40'2120.7
2016-Jun-28 16:33N 49°49' W 000°29'2120.6
2016-Jun-28 15:33N 49°30' W 000°18'1212.5
2016-Jun-28 14:33N 49°17' W 000°15'0 0.0
2016-Jun-28 13:33N 49°17' W 000°15'2 1.8
2016-Jun-28 12:33N 49°19' W 000°15'2020.0
2016-Jun-28 11:33N 49°38' W 000°25'2019.8
2016-Jun-28 10:33N 49°55' W 000°40'2019.7
2016-Jun-28 09:33N 50°14' W 000°51'1919.5
2016-Jun-28 08:33N 50°33' W 000°56'1616.2
2016-Jun-28 07:33N 50°48' W 001°07'1 1.3
2016-Jun-28 06:33N 50°49' W 001°06'13 6.5
2016-Jun-28 04:33N 50°37' W 000°58'1515.4
2016-Jun-28 03:33N 50°22' W 000°51'1110.6
2016-Jun-28 02:33N 50°13' W 000°42'1110.7
2016-Jun-28 01:33N 50°03' W 000°35'1110.6
2016-Jun-28 00:33N 49°53' W 000°30'1110.6
2016-Jun-27 23:33N 49°43' W 000°25'1110.6
2016-Jun-27 22:33N 49°33' W 000°21'1111.3
2016-Jun-27 21:33N 49°22' W 000°15'5 4.7
2016-Jun-27 20:33N 49°17' W 000°15'0 0.0
2016-Jun-27 19:33N 49°17' W 000°15'1211.6
2016-Jun-27 18:33N 49°29' W 000°14'1818.4
2016-Jun-27 17:34N 49°46' W 000°26'1918.9
2016-Jun-27 16:34N 50°03' W 000°36'2019.9
2016-Jun-27 15:33N 50°22' W 000°47'2120.6
2016-Jun-27 14:34N 50°41' W 001°01'9 8.6
2016-Jun-27 13:34N 50°49' W 001°06'0 0.0
2016-Jun-27 12:34N 50°49' W 001°06'4 3.5
2016-Jun-27 11:34N 50°45' W 001°05'1716.7
2016-Jun-27 10:33N 50°30' W 000°54'1919.0
2016-Jun-27 09:33N 50°12' W 000°46'1919.5
2016-Jun-27 08:33N 49°53' W 000°36'2019.7
2016-Jun-27 07:34N 49°35' W 000°24'1818.2
2016-Jun-27 06:33N 49°18' W 000°15'1 0.7
2016-Jun-27 05:33N 49°17' W 000°15'0 0.1
2016-Jun-27 04:34N 49°17' W 000°15'1616.1
2016-Jun-27 03:33N 49°33' W 000°20'1717.0
2016-Jun-27 02:33N 49°49' W 000°29'1615.9
2016-Jun-27 01:33N 50°04' W 000°36'1615.6
2016-Jun-27 00:33N 50°19' W 000°45'1616.3
2016-Jun-26 23:33N 50°34' W 000°55'1413.7
2016-Jun-26 22:33N 50°46' W 001°05'3 2.8
2016-Jun-26 21:33N 50°49' W 001°06'0 0.0
2016-Jun-26 20:33N 50°49' W 001°06'7 7.2
2016-Jun-26 19:33N 50°43' W 000°59'1615.7
2016-Jun-26 18:33N 50°28' W 000°50'1918.9
2016-Jun-26 17:33N 50°12' W 000°36'1919.0
2016-Jun-26 16:33N 49°53' W 000°28'2019.6
2016-Jun-26 15:34N 49°35' W 000°17'1717.4
2016-Jun-26 14:33N 49°18' W 000°15'0 0.4
2016-Jun-26 13:33N 49°17' W 000°15'1 1.2
2016-Jun-26 12:33N 49°19' W 000°15'2020.4
2016-Jun-26 11:33N 49°38' W 000°24'2221.5
2016-Jun-26 10:33N 49°57' W 000°38'2621.0
2016-Jun-26 09:18N 50°22' W 000°51'1620.9
2016-Jun-26 08:33N 50°37' W 000°58'1212.4
2016-Jun-26 07:33N 50°49' W 001°06'0 0.4
2016-Jun-26 06:33N 50°49' W 001°06'1 0.6
2016-Jun-26 05:33N 50°49' W 001°07'1413.5
2016-Jun-26 04:33N 50°36' W 000°57'1211.8
2016-Jun-26 03:33N 50°26' W 000°48'1211.3
2016-Jun-26 02:32N 50°15' W 000°42'1111.0
2016-Jun-26 01:33N 50°05' W 000°35'1110.6
2016-Jun-26 00:33N 49°55' W 000°29'1110.8
2016-Jun-25 23:34N 49°45' W 000°25'1110.9
2016-Jun-25 22:33N 49°34' W 000°21'1111.0
2016-Jun-25 21:33N 49°24' W 000°15'7 6.7
2016-Jun-25 20:33N 49°17' W 000°15'0 0.0
2016-Jun-25 19:34N 49°17' W 000°15'1211.6
2016-Jun-25 18:33N 49°29' W 000°17'1918.8
2016-Jun-25 17:34N 49°45' W 000°30'1818.2
2016-Jun-25 16:34N 50°02' W 000°42'1818.3
2016-Jun-25 15:33N 50°20' W 000°50'2120.7
2016-Jun-25 14:34N 50°39' W 000°59'1010.3
2016-Jun-25 13:33N 50°49' W 001°06'0 0.0
2016-Jun-25 12:33N 50°49' W 001°06'5 5.3
2016-Jun-25 11:33N 50°44' W 001°03'1918.7
2016-Jun-25 10:33N 50°28' W 000°48'2020.3
2016-Jun-25 09:33N 50°08' W 000°41'1919.4
2016-Jun-25 08:33N 49°49' W 000°34'1918.9
2016-Jun-25 07:33N 49°31' W 000°25'1515.1
2016-Jun-25 06:33N 49°17' W 000°15'0 0.0
2016-Jun-25 05:33N 49°17' W 000°15'0 0.1
2016-Jun-25 04:33N 49°17' W 000°15'1515.4
2016-Jun-25 03:33N 49°32' W 000°21'1616.0
2016-Jun-25 02:33N 49°47' W 000°30'1716.5
2016-Jun-25 01:33N 50°02' W 000°40'1616.0
2016-Jun-25 00:33N 50°18' W 000°46'1616.2
2016-Jun-24 23:33N 50°33' W 000°54'1514.8
2016-Jun-24 22:33N 50°46' W 001°05'3 2.6
2016-Jun-24 21:33N 50°49' W 001°06'0 0.0
2016-Jun-24 20:33N 50°49' W 001°06'7 6.7
2016-Jun-24 19:34N 50°43' W 001°00'1716.7
2016-Jun-24 18:33N 50°27' W 000°52'2019.6
2016-Jun-24 17:33N 50°09' W 000°42'1918.9
2016-Jun-24 16:33N 49°51' W 000°31'2019.6
2016-Jun-24 15:33N 49°33' W 000°21'1615.8
2016-Jun-24 14:33N 49°17' W 000°15'0 0.0
2016-Jun-24 13:33N 49°17' W 000°15'2 1.6
2016-Jun-24 12:33N 49°19' W 000°15'2120.8
2016-Jun-24 11:33N 49°39' W 000°22'2121.2
2016-Jun-24 10:33N 49°59' W 000°31'2521.1
2016-Jun-24 09:22N 50°23' W 000°47'1620.6
2016-Jun-24 08:33N 50°38' W 000°56'1212.4
2016-Jun-24 07:34N 50°49' W 001°06'13 4.3
2016-Jun-24 04:33N 50°37' W 000°58'1212.0
2016-Jun-24 03:33N 50°25' W 000°54'1211.7
2016-Jun-24 02:33N 50°14' W 000°46'1212.0
2016-Jun-24 01:33N 50°03' W 000°38'1111.5
2016-Jun-24 00:33N 49°53' W 000°32'1211.6
2016-Jun-23 23:33N 49°42' W 000°27'1111.0
2016-Jun-23 22:33N 49°32' W 000°20'1111.0
2016-Jun-23 21:33N 49°21' W 000°15'4 3.7
2016-Jun-23 20:33N 49°17' W 000°15'0 0.0
2016-Jun-23 19:33N 49°17' W 000°15'1312.5
2016-Jun-23 18:33N 49°30' W 000°16'2020.4
2016-Jun-23 17:33N 49°49' W 000°28'2020.1
2016-Jun-23 16:33N 50°07' W 000°41'2020.6
2016-Jun-23 15:33N 50°26' W 000°52'1919.3
2016-Jun-23 14:33N 50°44' W 001°04'5 4.7
2016-Jun-23 13:33N 50°49' W 001°06'0 0.0
2016-Jun-23 12:34N 50°49' W 001°06'4 4.3
2016-Jun-23 11:34N 50°44' W 001°05'2020.1
2016-Jun-23 10:33N 50°25' W 000°54'2020.0
2016-Jun-23 09:34N 50°07' W 000°43'2019.9
2016-Jun-23 08:34N 49°48' W 000°33'2019.9
2016-Jun-23 07:34N 49°30' W 000°21'13 6.4
2016-Jun-23 05:33N 49°17' W 000°15'0 0.1
2016-Jun-23 04:34N 49°17' W 000°15'1615.7
2016-Jun-23 03:34N 49°32' W 000°22'1515.3
2016-Jun-23 02:34N 49°47' W 000°30'1515.4
2016-Jun-23 01:33N 50°01' W 000°39'1211.8
2016-Jun-23 00:30N 50°13' W 000°44'1111.8
2016-Jun-22 23:33N 50°24' W 000°49'1211.9
2016-Jun-22 22:34N 50°35' W 000°56'1414.4
2016-Jun-22 21:33N 50°47' W 001°07'1 1.3
2016-Jun-22 20:33N 50°49' W 001°06'0 0.0
2016-Jun-22 19:33N 50°49' W 001°06'0 0.0
2016-Jun-22 18:33N 50°49' W 001°06'4 4.0
2016-Jun-22 17:34N 50°45' W 001°05'1817.5
2016-Jun-22 16:33N 50°28' W 000°55'1817.6
2016-Jun-22 15:33N 50°12' W 000°45'1717.2
2016-Jun-22 14:33N 49°56' W 000°35'1717.1
2016-Jun-22 13:33N 49°40' W 000°26'1818.4
2016-Jun-22 12:34N 49°23' W 000°16'5 5.4
2016-Jun-22 11:33N 49°17' W 000°15'0 0.0
2016-Jun-22 10:33N 49°17' W 000°15'0 0.0
2016-Jun-22 09:33N 49°17' W 000°15'0 0.0
2016-Jun-22 08:33N 49°17' W 000°15'0 0.0
2016-Jun-22 07:33N 49°17' W 000°15'0 0.0
2016-Jun-22 06:34N 49°17' W 000°15'0 0.0
2016-Jun-22 05:33N 49°17' W 000°15'1111.3
2016-Jun-22 04:34N 49°29' W 000°17'1717.1
2016-Jun-22 03:34N 49°44' W 000°27'1313.1
2016-Jun-22 02:33N 49°56' W 000°36'1111.0
2016-Jun-22 01:34N 50°06' W 000°42'1615.5
2016-Jun-22 00:33N 50°21' W 000°49'1616.1
2016-Jun-21 23:34N 50°36' W 000°58'1313.4
2016-Jun-21 22:34N 50°49' W 001°07'0 0.5
2016-Jun-21 21:33N 50°49' W 001°06'0 0.0
2016-Jun-21 20:33N 50°49' W 001°06'8 7.5
2016-Jun-21 19:33N 50°43' W 000°59'2020.0
2016-Jun-21 18:33N 50°23' W 000°53'2121.3
2016-Jun-21 17:33N 50°03' W 000°42'2221.7
2016-Jun-21 16:33N 49°43' W 000°29'2221.8
2016-Jun-21 15:33N 49°23' W 000°15'6 5.5
2016-Jun-21 14:33N 49°17' W 000°15'0 0.0
2016-Jun-21 13:33N 49°17' W 000°15'8 7.7
2016-Jun-21 12:33N 49°25' W 000°16'2120.8
2016-Jun-21 11:33N 49°45' W 000°26'2121.1
2016-Jun-21 10:33N 50°05' W 000°37'1514.6
2016-Jun-21 09:34N 50°18' W 000°47'2020.4
2016-Jun-21 08:33N 50°37' W 000°56'1313.1
2016-Jun-21 07:33N 50°49' W 001°06'0 0.1
2016-Jun-21 05:33N 50°49' W 001°06'  
Track history (hours):
 
Tides and Currents Weather Stations Pressure Air Temp Water Temp Dewpoint Dewpoint Depression Visibility Wind Speed Wind Dir Waves Ship Positions

Mont Saint Michel

Last reported at 2016-Jul-01 04:34 UTC. Time now 2016-Jul-01 06:19 UTC.
Position N 50°37' W 000°57'.

Length 173 m; beam 29 m.

Type: Ship. MMSI: 227023100.

Date/timePositionNaut miles runAvg speedWind from/ knotsBaromVisibWave heightAir tempDewpointWater temp
2016-Jul-01 04:34N 50°37' W 000°57'1615.6
2016-Jul-01 03:32N 50°22' W 000°48'1211.8
2016-Jul-01 02:33N 50°11' W 000°42'1212.1
2016-Jul-01 01:33N 49°59' W 000°36'1312.7
2016-Jul-01 00:33N 49°47' W 000°30'8 8.3
2016-Jun-30 23:33N 49°40' W 000°24'7 7.2
2016-Jun-30 22:33N 49°33' W 000°19'1312.9
2016-Jun-30 21:34N 49°21' W 000°14'3 3.3
2016-Jun-30 20:33N 49°17' W 000°15'0 0.0
2016-Jun-30 19:33N 49°17' W 000°15'1110.9
2016-Jun-30 18:34N 49°28' W 000°18'2020.2
2016-Jun-30 17:33N 49°47' W 000°28'2020.3
2016-Jun-30 16:34N 50°06' W 000°38'2020.2
2016-Jun-30 15:33N 50°25' W 000°49'1919.5
2016-Jun-30 14:34N 50°43' W 001°01'6 6.2
2016-Jun-30 13:33N 50°49' W 001°06'0 0.0
2016-Jun-30 12:33N 50°49' W 001°06'6 6.4
2016-Jun-30 11:33N 50°43' W 001°00'1817.7
2016-Jun-30 10:34N 50°26' W 000°54'1919.1
2016-Jun-30 09:33N 50°09' W 000°40'2020.4
2016-Jun-30 08:33N 49°50' W 000°31'2120.7
2016-Jun-30 07:33N 49°30' W 000°20'1313.2
2016-Jun-30 06:33N 49°17' W 000°15'0 0.0
2016-Jun-30 05:33N 49°17' W 000°15'0 0.0
2016-Jun-30 04:33N 49°17' W 000°15'1413.5
2016-Jun-30 03:33N 49°31' W 000°19'1514.6
2016-Jun-30 02:33N 49°44' W 000°27'1211.6
2016-Jun-30 01:33N 49°55' W 000°34'1212.4
2016-Jun-30 00:33N 50°07' W 000°40'1514.3
2016-Jun-29 23:30N 50°21' W 000°49'1414.4
2016-Jun-29 22:33N 50°34' W 000°56'1514.6
2016-Jun-29 21:33N 50°47' W 001°06'2 2.0
2016-Jun-29 20:33N 50°49' W 001°06'0 0.0
2016-Jun-29 19:33N 50°49' W 001°06'0 0.0
2016-Jun-29 18:33N 50°49' W 001°06'5 5.3
2016-Jun-29 17:33N 50°44' W 001°03'1717.4
2016-Jun-29 16:33N 50°28' W 000°51'1818.5
2016-Jun-29 15:34N 50°11' W 000°41'1616.0
2016-Jun-29 14:34N 49°56' W 000°33'1717.3
2016-Jun-29 13:34N 49°39' W 000°24'1918.5
2016-Jun-29 12:34N 49°22' W 000°15'4 4.3
2016-Jun-29 11:34N 49°17' W 000°15'0 0.0
2016-Jun-29 10:34N 49°17' W 000°15'0 0.0
2016-Jun-29 09:33N 49°17' W 000°15'0 0.0
2016-Jun-29 08:34N 49°17' W 000°15'0 0.0
2016-Jun-29 07:34N 49°17' W 000°15'0 0.0
2016-Jun-29 06:34N 49°17' W 000°15'0 0.0
2016-Jun-29 05:34N 49°17' W 000°15'1110.7
2016-Jun-29 04:33N 49°28' W 000°17'1514.7
2016-Jun-29 03:33N 49°42' W 000°24'1211.8
2016-Jun-29 02:33N 49°53' W 000°30'1212.2
2016-Jun-29 01:33N 50°05' W 000°37'1514.4
2016-Jun-29 00:29N 50°19' W 000°46'1415.3
2016-Jun-28 23:33N 50°32' W 000°54'1414.3
2016-Jun-28 22:34N 50°45' W 001°05'4 4.2
2016-Jun-28 21:34N 50°49' W 001°06'0 0.0
2016-Jun-28 20:34N 50°49' W 001°06'3 3.5
2016-Jun-28 19:34N 50°45' W 001°05'2019.5
2016-Jun-28 18:33N 50°28' W 000°52'2120.6
2016-Jun-28 17:33N 50°08' W 000°40'2120.7
2016-Jun-28 16:33N 49°49' W 000°29'2120.6
2016-Jun-28 15:33N 49°30' W 000°18'1212.5
2016-Jun-28 14:33N 49°17' W 000°15'0 0.0
2016-Jun-28 13:33N 49°17' W 000°15'2 1.8
2016-Jun-28 12:33N 49°19' W 000°15'2020.0
2016-Jun-28 11:33N 49°38' W 000°25'2019.8
2016-Jun-28 10:33N 49°55' W 000°40'2019.7
2016-Jun-28 09:33N 50°14' W 000°51'1919.5
2016-Jun-28 08:33N 50°33' W 000°56'1616.2
2016-Jun-28 07:33N 50°48' W 001°07'1 1.3
2016-Jun-28 06:33N 50°49' W 001°06'13 6.5
2016-Jun-28 04:33N 50°37' W 000°58'1515.4
2016-Jun-28 03:33N 50°22' W 000°51'1110.6
2016-Jun-28 02:33N 50°13' W 000°42'1110.7
2016-Jun-28 01:33N 50°03' W 000°35'1110.6
2016-Jun-28 00:33N 49°53' W 000°30'1110.6
2016-Jun-27 23:33N 49°43' W 000°25'1110.6
2016-Jun-27 22:33N 49°33' W 000°21'1111.3
2016-Jun-27 21:33N 49°22' W 000°15'5 4.7
2016-Jun-27 20:33N 49°17' W 000°15'0 0.0
2016-Jun-27 19:33N 49°17' W 000°15'1211.6
2016-Jun-27 18:33N 49°29' W 000°14'1818.4
2016-Jun-27 17:34N 49°46' W 000°26'1918.9
2016-Jun-27 16:34N 50°03' W 000°36'2019.9
2016-Jun-27 15:33N 50°22' W 000°47'2120.6
2016-Jun-27 14:34N 50°41' W 001°01'9 8.6
2016-Jun-27 13:34N 50°49' W 001°06'0 0.0
2016-Jun-27 12:34N 50°49' W 001°06'4 3.5
2016-Jun-27 11:34N 50°45' W 001°05'1716.7
2016-Jun-27 10:33N 50°30' W 000°54'1919.0
2016-Jun-27 09:33N 50°12' W 000°46'1919.5
2016-Jun-27 08:33N 49°53' W 000°36'2019.7
2016-Jun-27 07:34N 49°35' W 000°24'1818.2
2016-Jun-27 06:33N 49°18' W 000°15'1 0.7
2016-Jun-27 05:33N 49°17' W 000°15'0 0.1
2016-Jun-27 04:34N 49°17' W 000°15'1616.1
2016-Jun-27 03:33N 49°33' W 000°20'1717.0
2016-Jun-27 02:33N 49°49' W 000°29'1615.9
2016-Jun-27 01:33N 50°04' W 000°36'1615.6
2016-Jun-27 00:33N 50°19' W 000°45'1616.3
2016-Jun-26 23:33N 50°34' W 000°55'1413.7
2016-Jun-26 22:33N 50°46' W 001°05'3 2.8
2016-Jun-26 21:33N 50°49' W 001°06'0 0.0
2016-Jun-26 20:33N 50°49' W 001°06'7 7.2
2016-Jun-26 19:33N 50°43' W 000°59'1615.7
2016-Jun-26 18:33N 50°28' W 000°50'1918.9
2016-Jun-26 17:33N 50°12' W 000°36'1919.0
2016-Jun-26 16:33N 49°53' W 000°28'2019.6
2016-Jun-26 15:34N 49°35' W 000°17'1717.4
2016-Jun-26 14:33N 49°18' W 000°15'0 0.4
2016-Jun-26 13:33N 49°17' W 000°15'1 1.2
2016-Jun-26 12:33N 49°19' W 000°15'2020.4
2016-Jun-26 11:33N 49°38' W 000°24'2221.5
2016-Jun-26 10:33N 49°57' W 000°38'2621.0
2016-Jun-26 09:18N 50°22' W 000°51'1620.9
2016-Jun-26 08:33N 50°37' W 000°58'1212.4
2016-Jun-26 07:33N 50°49' W 001°06'0 0.4
2016-Jun-26 06:33N 50°49' W 001°06'1 0.6
2016-Jun-26 05:33N 50°49' W 001°07'1413.5
2016-Jun-26 04:33N 50°36' W 000°57'1211.8
2016-Jun-26 03:33N 50°26' W 000°48'1211.3
2016-Jun-26 02:32N 50°15' W 000°42'1111.0
2016-Jun-26 01:33N 50°05' W 000°35'1110.6
2016-Jun-26 00:33N 49°55' W 000°29'1110.8
2016-Jun-25 23:34N 49°45' W 000°25'1110.9
2016-Jun-25 22:33N 49°34' W 000°21'1111.0
2016-Jun-25 21:33N 49°24' W 000°15'7 6.7
2016-Jun-25 20:33N 49°17' W 000°15'0 0.0
2016-Jun-25 19:34N 49°17' W 000°15'1211.6
2016-Jun-25 18:33N 49°29' W 000°17'1918.8
2016-Jun-25 17:34N 49°45' W 000°30'1818.2
2016-Jun-25 16:34N 50°02' W 000°42'1818.3
2016-Jun-25 15:33N 50°20' W 000°50'2120.7
2016-Jun-25 14:34N 50°39' W 000°59'1010.3
2016-Jun-25 13:33N 50°49' W 001°06'0 0.0
2016-Jun-25 12:33N 50°49' W 001°06'5 5.3
2016-Jun-25 11:33N 50°44' W 001°03'1918.7
2016-Jun-25 10:33N 50°28' W 000°48'2020.3
2016-Jun-25 09:33N 50°08' W 000°41'1919.4
2016-Jun-25 08:33N 49°49' W 000°34'1918.9
2016-Jun-25 07:33N 49°31' W 000°25'1515.1
2016-Jun-25 06:33N 49°17' W 000°15'0 0.0
2016-Jun-25 05:33N 49°17' W 000°15'0 0.1
2016-Jun-25 04:33N 49°17' W 000°15'1515.4
2016-Jun-25 03:33N 49°32' W 000°21'1616.0
2016-Jun-25 02:33N 49°47' W 000°30'1716.5
2016-Jun-25 01:33N 50°02' W 000°40'1616.0
2016-Jun-25 00:33N 50°18' W 000°46'1616.2
2016-Jun-24 23:33N 50°33' W 000°54'1514.8
2016-Jun-24 22:33N 50°46' W 001°05'3 2.6
2016-Jun-24 21:33N 50°49' W 001°06'0 0.0
2016-Jun-24 20:33N 50°49' W 001°06'7 6.7
2016-Jun-24 19:34N 50°43' W 001°00'1716.7
2016-Jun-24 18:33N 50°27' W 000°52'2019.6
2016-Jun-24 17:33N 50°09' W 000°42'1918.9
2016-Jun-24 16:33N 49°51' W 000°31'2019.6
2016-Jun-24 15:33N 49°33' W 000°21'1615.8
2016-Jun-24 14:33N 49°17' W 000°15'0 0.0
2016-Jun-24 13:33N 49°17' W 000°15'2 1.6
2016-Jun-24 12:33N 49°19' W 000°15'2120.8
2016-Jun-24 11:33N 49°39' W 000°22'2121.2
2016-Jun-24 10:33N 49°59' W 000°31'2521.1
2016-Jun-24 09:22N 50°23' W 000°47'1620.6
2016-Jun-24 08:33N 50°38' W 000°56'1212.4
2016-Jun-24 07:34N 50°49' W 001°06'13 4.3
2016-Jun-24 04:33N 50°37' W 000°58'1212.0
2016-Jun-24 03:33N 50°25' W 000°54'1211.7
2016-Jun-24 02:33N 50°14' W 000°46'1212.0
2016-Jun-24 01:33N 50°03' W 000°38'1111.5
2016-Jun-24 00:33N 49°53' W 000°32'1211.6
2016-Jun-23 23:33N 49°42' W 000°27'1111.0
2016-Jun-23 22:33N 49°32' W 000°20'1111.0
2016-Jun-23 21:33N 49°21' W 000°15'4 3.7
2016-Jun-23 20:33N 49°17' W 000°15'0 0.0
2016-Jun-23 19:33N 49°17' W 000°15'1312.5
2016-Jun-23 18:33N 49°30' W 000°16'2020.4
2016-Jun-23 17:33N 49°49' W 000°28'2020.1
2016-Jun-23 16:33N 50°07' W 000°41'2020.6
2016-Jun-23 15:33N 50°26' W 000°52'1919.3
2016-Jun-23 14:33N 50°44' W 001°04'5 4.7
2016-Jun-23 13:33N 50°49' W 001°06'0 0.0
2016-Jun-23 12:34N 50°49' W 001°06'4 4.3
2016-Jun-23 11:34N 50°44' W 001°05'2020.1
2016-Jun-23 10:33N 50°25' W 000°54'2020.0
2016-Jun-23 09:34N 50°07' W 000°43'2019.9
2016-Jun-23 08:34N 49°48' W 000°33'2019.9
2016-Jun-23 07:34N 49°30' W 000°21'13 6.4
2016-Jun-23 05:33N 49°17' W 000°15'0 0.1
2016-Jun-23 04:34N 49°17' W 000°15'1615.7
2016-Jun-23 03:34N 49°32' W 000°22'1515.3
2016-Jun-23 02:34N 49°47' W 000°30'1515.4
2016-Jun-23 01:33N 50°01' W 000°39'1211.8
2016-Jun-23 00:30N 50°13' W 000°44'1111.8
2016-Jun-22 23:33N 50°24' W 000°49'1211.9
2016-Jun-22 22:34N 50°35' W 000°56'1414.4
2016-Jun-22 21:33N 50°47' W 001°07'1 1.3
2016-Jun-22 20:33N 50°49' W 001°06'0 0.0
2016-Jun-22 19:33N 50°49' W 001°06'0 0.0
2016-Jun-22 18:33N 50°49' W 001°06'4 4.0
2016-Jun-22 17:34N 50°45' W 001°05'1817.5
2016-Jun-22 16:33N 50°28' W 000°55'1817.6
2016-Jun-22 15:33N 50°12' W 000°45'1717.2
2016-Jun-22 14:33N 49°56' W 000°35'1717.1
2016-Jun-22 13:33N 49°40' W 000°26'1818.4
2016-Jun-22 12:34N 49°23' W 000°16'5 5.4
2016-Jun-22 11:33N 49°17' W 000°15'0 0.0
2016-Jun-22 10:33N 49°17' W 000°15'0 0.0
2016-Jun-22 09:33N 49°17' W 000°15'0 0.0
2016-Jun-22 08:33N 49°17' W 000°15'0 0.0
2016-Jun-22 07:33N 49°17' W 000°15'0 0.0
2016-Jun-22 06:34N 49°17' W 000°15'0 0.0
2016-Jun-22 05:33N 49°17' W 000°15'1111.3
2016-Jun-22 04:34N 49°29' W 000°17'1717.1
2016-Jun-22 03:34N 49°44' W 000°27'1313.1
2016-Jun-22 02:33N 49°56' W 000°36'1111.0
2016-Jun-22 01:34N 50°06' W 000°42'1615.5
2016-Jun-22 00:33N 50°21' W 000°49'1616.1
2016-Jun-21 23:34N 50°36' W 000°58'1313.4
2016-Jun-21 22:34N 50°49' W 001°07'0 0.5
2016-Jun-21 21:33N 50°49' W 001°06'0 0.0
2016-Jun-21 20:33N 50°49' W 001°06'8 7.5
2016-Jun-21 19:33N 50°43' W 000°59'2020.0
2016-Jun-21 18:33N 50°23' W 000°53'2121.3
2016-Jun-21 17:33N 50°03' W 000°42'2221.7
2016-Jun-21 16:33N 49°43' W 000°29'2221.8
2016-Jun-21 15:33N 49°23' W 000°15'6 5.5
2016-Jun-21 14:33N 49°17' W 000°15'0 0.0
2016-Jun-21 13:33N 49°17' W 000°15'8 7.7
2016-Jun-21 12:33N 49°25' W 000°16'2120.8
2016-Jun-21 11:33N 49°45' W 000°26'2121.1
2016-Jun-21 10:33N 50°05' W 000°37'1514.6
2016-Jun-21 09:34N 50°18' W 000°47'2020.4
2016-Jun-21 08:33N 50°37' W 000°56'1313.1
2016-Jun-21 07:33N 50°49' W 001°06'0 0.1
2016-Jun-21 05:33N 50°49' W 001°06'  

Dump ship's entire track history